Flight Track Log - Related Links

Times and Time Zones

All times are in EST time to prevent confusion due to time zone crossing. See the USC131 flight status page for this flight to view local times or setup timezone preferences in your user account.

Time Position Orientation Groundspeed Altitude Reporting Facility
EST Latitude Longitude Course Direction KTS MPH feet Rate Location/Type
Wed 12:02:19 AM 40.7889 -112.0380 304° West 37,000  Level Salt Lake Center
Wed 12:03:19 AM 40.8297 -112.1190 78° East 251 289 14,300 -9,750 Descending Salt Lake Center
Wed 12:04:19 AM 40.8411 -112.0450 102° East 90 104 17,500 3,800 Climbing Salt Lake Center
Wed 12:05:19 AM 40.8217 -111.9210 119° Southeast 222 255 21,900 3,400 Climbing Salt Lake Center
Wed 12:06:19 AM 40.7686 -111.7940 110° East 331 381 24,300 2,300 Climbing Salt Lake Center
Wed 12:07:19 AM 40.7283 -111.6450 104° East 397 457 26,500 2,300 Climbing Salt Lake Center
Wed 12:08:19 AM 40.6983 -111.4830 100° East 438 504 28,900 2,290 Climbing Salt Lake Center
Wed 12:09:30 AM 40.6764 -111.3210 100° East 449 517 31,500 2,182 Climbing Salt Lake Center
Wed 12:10:31 AM 40.6503 -111.1350 100° East 464 534 33,700 1,884 Climbing Salt Lake Center
Wed 12:11:31 AM 40.6258 -110.9490 100° East 471 542 35,300 1,500 Climbing Salt Lake Center
Wed 12:12:31 AM 40.6031 -110.7790 102° East 471 542 36,700 850 Climbing Salt Lake Center
Wed 12:13:31 AM 40.5758 -110.6100 104° East 466 536 37,000 200 Climbing Salt Lake Center
Wed 12:14:31 AM 40.5422 -110.4290 100° East 489 563 37,100 50 Climbing Salt Lake Center
Wed 12:15:31 AM 40.5189 -110.2470 99° East 506 582 37,100 -50 Level Salt Lake Center
Wed 12:16:31 AM 40.4972 -110.0770 113° Southeast 514 592 37,000 -95 Descending Salt Lake Center
Wed 12:16:34 AM 40.4886 -110.0500 102° East 514 592 37,000  Level Denver Center
Wed 12:17:34 AM 40.4586 -109.8690 101° East 506 582 37,000  Level Denver Center
Wed 12:18:34 AM 40.4306 -109.6820 101° East 512 589 37,000  Level Denver Center
Wed 12:19:34 AM 40.4061 -109.5140 101° East 512 589 37,000  Level Denver Center
Wed 12:20:34 AM 40.3758 -109.3080 102° East 512 589 37,000  Level Denver Center
Wed 12:21:34 AM 40.3447 -109.1240 103° East 512 589 37,000  Level Denver Center
Wed 12:22:34 AM 40.3133 -108.9410 100° East 512 589 37,000  Level Denver Center
Wed 12:23:34 AM 40.2897 -108.7740 93° East 512 589 37,000  Level Denver Center
Wed 12:24:34 AM 40.2808 -108.5860 84° East 512 589 37,000  Level Denver Center
Wed 12:25:34 AM 40.2969 -108.3850 88° East 500 575 37,000  Level Denver Center
Wed 12:26:34 AM 40.3019 -108.2000 87° East 500 575 37,000  Level Denver Center
Wed 12:27:34 AM 40.3086 -108.0310 86° East 505 581 37,000  Level Denver Center
Wed 12:28:34 AM 40.3172 -107.8460 88° East 505 581 37,000  Level Denver Center
Wed 12:29:34 AM 40.3217 -107.6420 88° East 505 581 37,000  Level Denver Center
Wed 12:30:34 AM 40.3275 -107.4620 89° East 511 588 37,000  Level Denver Center
Wed 12:31:34 AM 40.3289 -107.2770 88° East 511 588 37,000 -700 Level Denver Center
Wed 12:32:34 AM 40.3342 -107.1080 89° East 506 582 35,600 -1,300 Descending Denver Center
Wed 12:33:34 AM 40.3372 -106.9060 88° East 506 582 34,400 -1,100 Descending Denver Center
Wed 12:34:34 AM 40.3419 -106.7270 88° East 499 574 33,400 -1,350 Descending Denver Center
Wed 12:35:34 AM 40.3464 -106.5440 88° East 499 574 31,700 -1,400 Descending Denver Center
Wed 12:36:34 AM 40.3506 -106.3780 88° East 499 574 30,600 -1,200 Descending Denver Center
Wed 12:37:34 AM 40.3544 -106.1870 106° East 489 563 29,300 -1,800 Descending Denver Center
Wed 12:38:34 AM 40.3161 -106.0070 107° East 495 570 27,000 -1,800 Descending Denver Center
Wed 12:39:34 AM 40.2758 -105.8360 108° East 495 570 25,700 -1,546 Descending Denver Center
Wed 12:40:11 AM 40.2500 -105.7330 100° East 474 545 24,500 -2,100 Descending Denver TRACON
Wed 12:40:34 AM 40.2414 -105.6680 103° East 487 560 23,600 -1,917 Descending Denver Center
Wed 12:41:23 AM 40.2167 -105.5330 124° Southeast 471 542 22,200 -1,400 Descending Denver TRACON
Wed 12:41:34 AM 40.2111 -105.5220 102° East 475 547 22,200 -2,455 Level Denver Center
Wed 12:42:29 AM 40.1833 -105.3500 241° Southwest 441 507 19,500 -2,600 Descending Denver TRACON
Wed 12:42:34 AM 40.1783 -105.3620 104° East 457 526 19,600 -3,444 Climbing Denver Center
Wed 12:43:23 AM 40.1500 -105.2170 111° Southeast 418 481 16,400 -3,300 Descending Denver TRACON
Wed 12:43:34 AM 40.1497 -105.2160 143° Southeast 427 491 16,300 -1,770 Descending Denver Center
Wed 12:44:24 AM 40.0667 -105.1330 119° Southeast 405 466 14,600 -1,700 Descending Denver TRACON
Wed 12:44:34 AM 40.0633 -105.1250 155° Southeast 389 448 14,600 -1,900 Level Denver Center
Wed 12:45:24 AM 39.9667 -105.0670 90° East 388 447 12,700 -2,200 Descending Denver TRACON
Wed 12:45:34 AM 39.9667 -105.0620 158° South 394 453 12,400 -3,000 Descending Denver Center
Wed 12:46:24 AM 39.8833 -105.0170 142° Southeast 344 396 9,700 -2,800 Descending Denver TRACON
Wed 12:46:34 AM 39.8783 -105.0120 156° South 373 429 9,600 -1,100 Descending Denver Center
Wed 12:47:24 AM 39.8000 -104.9670 145° Southeast 331 381 8,600 -1,100 Descending Denver TRACON
Wed 12:47:34 AM 39.7922 -104.9600 156° South 350 403 8,500 -600 Descending Denver Center
Wed 12:48:24 AM 39.7167 -104.9170 139° Southeast 309 356 8,000 -600 Descending Denver TRACON
Wed 12:48:34 AM 39.7061 -104.9050 152° Southeast 326 375 7,900 -1,200 Descending Denver Center
Wed 12:49:24 AM 39.6500 -104.8670 161° South 302 348 6,800 -1,000 Descending Denver TRACON
Wed 12:49:34 AM 39.6303 -104.8580 172° South 316 364 6,900 -771 Climbing Denver Center
Wed 12:50:34 AM 39.5781 -104.8490 164° South 245 282 5,900 -500 Descending Denver Center
Wed 12:51:34 AM 39.5236 -104.8290 164° South 211 243 5,900  Level Denver Center

Login

Don't have an account? Register now (free) for customized features, flight alerts, and more!